Date,TemperatureHighF,TemperatureAvgF,TemperatureLowF,DewpointHighF,DewpointAvgF,DewpointLowF,HumidityHigh,HumidityAvg,HumidityLow,PressureMaxIn,PressureMinIn,WindSpeedMaxMPH,WindSpeedAvgMPH,GustSpeedMaxMPH,PrecipitationSumIn
2013-1-1,34.0,28.9,15.0,22.0,11.0,-1.0,62,47,34,29.94,29.71,0,-999,0,0.00
2013-1-2,26.0,16.8,8.0,15.0,2.5,-6.0,67,53,46,30.11,29.91,0,-999,0,0.00
2013-1-3,23.0,12.0,1.0,5.0,-6.7,-13.0,57,43,19,30.14,29.99,0,-999,0,0.00
2013-1-4,35.0,28.2,18.0,19.0,15.1,5.0,70,58,47,29.99,29.81,0,-999,0,0.00
2013-1-5,39.0,33.5,25.0,19.0,14.4,9.0,60,46,30,30.26,29.85,0,-999,0,0.00
2013-1-6,40.0,31.2,24.0,24.0,20.4,12.0,83,64,50,30.22,29.95,0,-999,0,0.00
2013-1-7,36.0,32.0,25.0,25.0,17.1,8.0,72,55,31,30.41,29.96,0,-999,0,0.00
2013-1-8,43.0,33.8,24.0,22.0,19.4,12.0,69,56,41,30.37,30.27,0,-999,0,0.00
2013-1-9,43.0,35.2,26.0,30.0,22.8,18.0,75,60,42,30.41,30.00,0,-999,0,0.00
2013-1-10,45.0,39.7,33.0,24.0,18.8,16.0,57,43,32,30.55,30.05,0,-999,0,0.00
2013-1-11,38.0,32.9,27.0,32.0,22.7,19.0,88,66,52,30.55,30.24,0,-999,0,0.00
2013-1-12,40.0,36.8,33.0,37.0,34.0,30.0,90,89,88,30.25,30.14,0,-999,0,0.00
2013-1-13,48.0,43.6,39.0,45.0,40.8,37.0,90,89,84,30.16,30.00,0,-999,0,0.00
2013-1-14,59.0,48.0,38.0,47.0,37.2,22.0,89,68,38,30.27,29.88,0,-999,0,0.00
2013-1-15,40.0,35.3,30.0,23.0,19.8,18.0,67,53,42,30.34,30.25,0,-999,0,0.00
2013-1-16,31.0,30.2,27.0,28.0,25.3,19.0,90,82,59,30.26,29.83,0,-999,0,0.00
2013-1-17,39.0,32.2,27.0,29.0,22.5,4.0,89,68,40,30.11,29.83,0,-999,0,0.00
2013-1-18,26.0,19.0,13.0,4.0,-5.1,-11.0,47,34,22,30.44,30.05,0,-999,0,0.00
2013-1-19,45.0,34.1,18.0,27.0,15.0,1.0,61,45,33,30.37,29.88,0,-999,0,0.00
2013-1-20,50.0,38.5,26.0,27.0,19.3,4.0,62,47,24,29.93,29.55,0,-999,0,0.00
2013-1-21,26.0,21.9,17.0,17.0,5.0,-4.0,84,50,33,30.09,29.79,0,-999,0,0.00
2013-1-22,21.0,17.2,10.0,17.0,3.5,-7.0,86,58,31,30.07,29.76,0,-999,0,0.00
2013-1-23,13.0,7.9,3.0,-5.0,-13.8,-19.0,57,36,21,30.13,30.06,0,-999,0,0.00
2013-1-24,16.0,5.6,-1.0,-12.0,-16.3,-19.0,56,37,21,30.23,30.09,0,-999,0,0.00
2013-1-25,21.0,13.4,6.0,1.0,-14.0,-18.0,50,28,17,30.30,30.06,0,-999,0,0.00
2013-1-26,21.0,14.4,8.0,7.0,-3.7,-13.0,80,48,22,30.24,30.00,0,-999,0,0.00
2013-1-27,28.0,18.3,10.0,-2.0,-5.5,-11.0,54,36,20,30.47,30.23,0,-999,0,0.00
2013-1-28,28.0,22.2,16.0,21.0,7.2,-6.0,87,56,30,30.46,30.04,0,-999,0,0.00
2013-1-29,32.0,27.3,22.0,29.0,23.1,18.0,88,84,76,30.20,30.04,0,-999,0,0.00
2013-1-30,58.0,44.4,31.0,53.0,40.8,28.0,90,87,81,30.17,29.47,0,-999,0,0.00
2013-1-31,57.0,38.8,28.0,53.0,22.7,11.0,87,53,31,29.59,28.97,0,-999,0,0.00
2013-2-1,30.0,25.6,20.0,16.0,4.0,-3.0,62,40,28,30.08,29.59,0,-999,0,0.00
2013-2-2,27.0,21.5,14.0,7.0,0.3,-3.0,51,39,31,30.24,30.05,0,-999,0,0.00
2013-2-3,24.0,22.2,19.0,19.0,15.9,7.0,86,76,48,30.06,29.73,0,-999,0,0.00
2013-2-4,28.0,22.0,18.0,18.0,5.6,-2.0,85,51,29,29.93,29.72,0,-999,0,0.00
2013-2-5,31.0,23.0,18.0,17.0,6.4,0.0,75,49,35,30.03,29.93,0,-999,0,0.00
2013-2-6,35.0,27.1,21.0,21.0,12.7,-2.0,86,58,29,30.29,29.93,0,-999,0,0.00
2013-2-7,28.0,21.7,15.0,-1.0,-5.4,-99.9,43,31,21,30.53,30.29,0,-999,0,0.00
2013-2-8,23.0,20.4,16.0,17.0,12.4,-4.0,85,73,30,30.50,29.69,0,-999,0,0.00
2013-2-9,21.0,16.8,14.0,15.0,7.9,-4.0,85,69,43,30.20,29.64,0,-999,0,0.00
2013-2-10,41.0,25.2,12.0,0.0,-7.0,-99.9,44,27,12,30.40,30.21,0,-999,0,0.00
2013-2-11,31.0,27.6,22.0,28.0,16.6,-3.0,90,67,27,30.35,29.63,0,-999,0,0.00
2013-2-12,42.0,36.4,31.0,32.0,24.8,21.0,90,63,46,29.89,29.61,0,-999,0,0.00
2013-2-13,42.0,34.2,29.0,21.0,18.3,16.0,66,52,37,29.87,29.73,0,-999,0,0.00
2013-2-14,45.0,34.9,27.0,18.0,15.8,13.0,62,47,30,29.99,29.72,0,-999,0,0.00
2013-2-15,51.0,39.2,28.0,28.0,24.1,18.0,87,56,35,29.99,29.91,0,-999,0,0.00
2013-2-16,38.0,33.2,27.0,30.0,22.3,11.0,89,65,45,29.97,29.76,0,-999,0,0.00
2013-2-17,26.0,19.6,15.0,16.0,1.7,-99.9,82,50,33,29.76,29.42,0,-999,0,0.00
2013-2-18,29.0,20.5,12.0,-3.0,-7.0,-99.9,45,31,17,30.15,29.68,0,-999,0,0.00
2013-2-19,46.0,33.9,20.0,38.0,16.1,-4.0,89,50,32,30.17,29.60,0,-999,0,0.00
2013-2-20,39.0,30.0,24.0,36.0,14.8,5.0,89,54,33,29.78,29.56,0,-999,0,0.00
2013-2-21,30.0,25.0,22.0,12.0,7.9,4.0,60,48,35,30.19,29.76,0,-999,0,0.00
2013-2-22,41.0,30.7,22.0,21.0,15.1,12.0,72,54,30,30.40,30.20,0,-999,0,0.00
2013-3-7,33.0,30.8,29.0,28.0,26.4,24.0,88,83,71,30.08,30.03,0,-999,0,0.00
2013-3-8,41.0,31.9,28.0,33.0,25.8,18.0,90,79,47,30.18,29.98,0,-999,0,0.00
2013-3-9,55.0,38.4,29.0,27.0,19.0,11.0,80,49,17,30.37,30.17,0,-999,0,0.00
2013-3-10,49.0,35.4,24.0,28.0,25.1,20.0,87,68,39,30.43,30.32,0,-999,0,0.00
2013-3-11,51.0,40.6,33.0,36.0,29.9,28.0,83,67,42,30.33,30.16,0,-999,0,0.00
2013-3-12,55.0,48.0,40.0,49.0,43.6,36.0,89,85,72,30.17,29.74,0,-999,0,0.00
2013-3-13,51.0,41.8,35.0,48.0,24.7,13.0,88,54,26,29.80,29.73,0,-999,0,0.00
2013-3-14,35.0,29.1,20.0,20.0,9.7,1.0,60,44,35,29.85,29.72,0,-999,0,0.00
2013-3-15,38.0,27.2,17.0,27.0,7.3,-2.0,82,44,20,29.88,29.64,0,-999,0,0.00
2013-3-16,37.0,31.1,26.0,22.0,8.6,3.0,64,40,23,29.90,29.68,0,-999,0,0.00
2013-3-17,34.0,28.1,21.0,11.0,3.9,-2.0,62,37,20,30.33,29.90,0,-999,0,0.00
2013-3-18,37.0,26.8,15.0,24.0,0.8,-6.0,84,35,14,30.47,30.25,0,-999,0,0.00
2013-3-19,33.0,29.9,25.0,30.0,27.0,22.0,89,88,84,30.26,29.67,0,-999,0,0.00
2013-3-20,36.0,28.6,23.0,22.0,17.9,15.0,89,65,43,29.82,29.72,0,-999,0,0.00
2013-3-21,40.0,29.5,23.0,24.0,15.4,7.0,84,58,30,29.82,29.62,0,-999,0,0.00
2013-3-22,38.0,31.1,26.0,23.0,14.2,9.0,85,50,32,29.75,29.62,0,-999,0,0.00
2013-3-23,42.0,33.3,25.0,18.0,13.9,9.0,69,46,27,29.80,29.65,0,-999,0,0.00
2013-3-24,46.0,37.2,31.0,23.0,17.3,15.0,63,45,30,29.83,29.75,0,-999,0,0.00
2013-3-25,45.0,36.0,29.0,27.0,23.3,18.0,68,59,49,29.80,29.55,0,-999,0,0.00
2013-3-26,49.0,39.1,33.0,24.0,19.1,12.0,65,46,22,29.80,29.57,0,-999,0,0.00
2013-3-27,51.0,41.3,31.0,27.0,18.4,15.0,62,40,25,29.90,29.77,0,-999,0,0.00
2013-3-28,48.0,40.8,34.0,31.0,28.0,23.0,87,62,38,30.04,29.90,0,-999,0,0.00
2013-3-29,55.0,44.5,36.0,29.0,26.5,21.0,69,50,27,30.07,29.99,0,-999,0,0.00
2013-3-30,55.0,45.2,36.0,29.0,17.2,6.0,67,37,14,30.12,30.03,0,-999,0,0.00
2013-3-31,57.0,45.2,29.0,36.0,18.8,-99.9,73,39,18,30.14,29.76,0,-999,0,0.00
2013-4-1,58.0,43.9,33.0,39.0,30.5,4.0,89,63,24,29.80,29.53,0,-999,0,0.00
2013-4-2,37.0,32.0,27.0,10.0,6.5,2.0,45,34,23,29.94,29.80,0,-999,0,0.00
2013-4-3,43.0,34.5,27.0,12.0,6.7,0.0,45,32,16,30.16,29.93,0,-999,0,0.00
2013-4-4,53.0,40.2,28.0,18.0,9.5,2.0,50,30,14,30.31,30.05,0,-999,0,0.00
2013-4-5,59.0,44.6,36.0,25.0,20.2,9.0,64,41,13,30.05,29.67,0,-999,0,0.00
2013-4-6,45.0,36.2,29.0,22.0,3.0,-6.0,53,27,12,30.35,29.90,0,-999,0,0.00
2013-4-7,55.0,41.6,27.0,35.0,17.8,0.0,68,40,20,30.35,30.01,0,-999,0,0.00
2013-4-8,67.0,51.5,42.0,38.0,33.3,27.0,84,54,22,30.12,29.97,0,-999,0,0.00
2013-4-9,68.0,55.0,45.0,45.0,38.6,35.0,83,56,31,30.10,29.90,0,-999,0,0.00
2013-4-10,62.0,50.9,45.0,47.0,42.7,39.0,88,74,51,30.04,29.89,0,-999,0,0.00
2013-4-11,51.0,45.1,38.0,45.0,33.1,19.0,89,65,33,30.17,29.87,0,-999,0,0.00
2013-4-12,40.0,36.0,34.0,33.0,30.3,27.0,89,79,63,30.19,29.84,0,-999,0,0.00
2013-4-13,52.0,41.8,33.0,33.0,31.8,30.0,89,69,44,29.96,29.80,0,-999,0,0.00
2013-4-14,50.0,44.4,39.0,34.0,26.9,20.0,75,51,32,30.24,29.94,0,-999,0,0.00
2013-4-15,60.0,45.0,32.0,34.0,27.4,24.0,75,52,27,30.40,30.24,0,-999,0,0.00
2013-4-16,66.0,51.3,38.0,47.0,37.2,30.0,81,60,35,30.42,30.08,0,-999,0,0.00
2013-4-17,65.0,56.4,50.0,49.0,30.1,21.0,76,40,19,30.36,30.08,0,-999,0,0.00
2013-4-18,64.0,52.3,41.0,39.0,26.5,20.0,64,38,24,30.46,30.17,0,-999,0,0.00
2013-4-19,74.0,62.0,51.0,59.0,52.5,40.0,88,71,49,30.17,29.66,0,-999,0,0.00
2013-4-20,67.0,51.6,42.0,59.0,35.1,16.0,88,57,28,30.23,29.64,0,-999,0,0.00
2013-4-21,55.0,41.7,32.0,26.0,15.2,9.0,60,36,17,30.70,30.23,0,-999,0,0.00
2013-4-22,53.0,42.1,31.0,28.0,24.3,15.0,80,52,22,30.78,30.63,0,-999,0,0.00
2013-4-23,40.0,37.5,35.0,36.0,32.5,27.0,89,82,66,30.63,30.16,0,-999,0,0.00
2013-4-24,75.0,55.7,39.0,46.0,39.0,30.0,89,60,19,30.18,29.81,0,-999,0,0.00
2013-4-25,62.0,53.9,46.0,49.0,28.9,16.0,85,43,17,30.30,29.85,0,-999,0,0.00
2013-4-26,63.0,51.3,36.0,33.0,25.8,19.0,65,38,23,30.45,30.30,0,-999,0,0.00
2013-4-27,68.0,52.5,38.0,34.0,30.2,26.0,77,46,21,30.45,30.31,0,-999,0,0.00
2013-4-28,72.0,55.3,40.0,35.0,30.2,-99.9,77,44,19,30.37,30.24,0,-999,0,0.00
2013-4-29,70.0,57.6,46.0,42.0,31.2,20.0,69,39,21,30.29,30.21,0,-999,0,0.00
2013-4-30,72.0,59.6,50.0,31.0,20.0,13.0,41,23,12,30.39,30.28,0,-999,0,0.00
2013-5-1,73.0,57.4,40.0,31.0,27.0,23.0,65,34,16,30.50,30.39,0,-999,0,0.00
2013-5-2,80.0,58.4,47.0,39.0,34.5,26.0,61,43,16,30.52,30.37,0,-999,0,0.00
2013-5-3,63.0,52.0,40.0,40.0,36.2,33.0,78,56,39,30.56,30.42,0,-999,0,0.00
2013-5-4,64.0,52.7,42.0,41.0,33.4,11.0,84,54,13,30.41,30.32,0,-999,0,0.00
2013-5-5,66.0,50.0,34.0,36.0,33.5,31.0,88,58,29,30.36,30.27,0,-999,0,0.00
2013-5-6,77.0,54.8,35.0,46.0,37.8,31.0,88,58,19,30.31,30.17,0,-999,0,0.00
2013-5-7,81.0,65.1,51.0,53.0,46.4,40.0,78,54,26,30.20,30.11,0,-999,0,0.00
2013-5-8,75.0,64.3,56.0,58.0,54.5,51.0,85,71,49,30.24,30.09,0,-999,0,0.00
2013-5-9,71.0,60.5,56.0,58.0,54.8,51.0,88,81,58,30.09,29.92,0,-999,0,0.00
2013-5-10,81.0,65.1,51.0,56.0,51.3,47.0,90,65,30,29.99,29.92,0,-999,0,0.00
2013-5-11,69.0,63.2,58.0,59.0,55.2,51.0,88,75,59,29.94,29.73,0,-999,0,0.00
2013-5-12,68.0,59.7,48.0,58.0,45.6,24.0,88,63,30,29.82,29.60,0,-999,0,0.00
2013-5-13,55.0,46.9,40.0,29.0,24.5,20.0,64,42,27,30.05,29.83,0,-999,0,0.00
2013-5-14,56.0,47.4,39.0,30.0,25.6,21.0,65,44,25,30.08,30.01,0,-999,0,0.00
2013-5-15,64.0,51.7,39.0,48.0,34.6,24.0,81,55,24,30.08,29.70,0,-999,0,0.00
2013-5-16,78.0,65.5,52.0,48.0,25.8,-99.9,84,39,15,29.84,29.67,0,-999,0,0.00
2013-5-17,69.0,58.7,48.0,39.0,30.1,-99.9,67,42,23,30.24,29.85,0,-999,0,0.00
2013-5-18,73.0,59.3,44.0,44.0,36.3,28.0,76,46,20,30.34,30.24,0,-999,0,0.00
2013-5-19,72.0,56.7,46.0,52.0,46.9,43.0,88,71,38,30.38,30.24,0,-999,0,0.00
2013-5-20,82.0,67.1,55.0,59.0,56.2,51.0,88,69,44,30.25,29.96,0,-999,0,0.00
2013-5-21,81.0,62.9,49.0,63.0,55.0,45.0,88,76,52,30.05,29.91,0,-999,0,0.00
2013-5-22,68.0,55.8,49.0,58.0,50.9,45.0,89,83,69,30.11,29.92,0,-999,0,0.00
2013-5-23,75.0,62.5,53.0,66.0,57.6,50.0,89,84,69,29.97,29.83,0,-999,0,0.00
2013-5-24,71.0,61.3,46.0,62.0,55.9,43.0,89,82,65,29.87,29.68,0,-999,0,0.00
2013-5-25,48.0,44.7,39.0,45.0,41.3,34.0,89,88,83,29.87,29.76,0,-999,0,0.00
2013-5-26,54.0,46.3,38.0,36.0,34.5,32.0,86,64,42,30.12,29.74,0,-999,0,0.00
2013-5-27,70.0,57.1,41.0,37.0,32.4,26.0,80,44,19,30.21,30.11,0,-999,0,0.00
2013-5-28,75.0,60.6,44.0,47.0,39.5,33.0,80,49,23,30.27,30.19,0,-999,0,0.00
2013-5-29,72.0,62.5,57.0,61.0,56.3,47.0,88,80,64,30.22,30.01,0,-999,0,0.00
2013-5-30,87.0,74.8,63.0,64.0,59.9,56.0,88,62,35,30.12,30.05,0,-999,0,0.00
2013-5-31,92.0,81.0,68.0,65.0,59.8,55.0,76,51,29,30.13,29.98,0,-999,0,0.00
2013-6-1,92.0,81.3,70.0,65.0,59.8,52.0,68,50,26,30.02,29.89,0,-999,0,0.00
2013-6-2,89.0,78.0,69.0,67.0,61.5,-99.9,79,61,33,29.92,29.75,0,-999,0,0.00
2013-6-3,78.0,68.3,59.0,63.0,58.0,40.0,88,71,45,29.89,29.79,0,-999,0,0.00
2013-6-4,70.0,60.0,49.0,42.0,38.4,36.0,62,45,32,30.14,29.87,0,-999,0,0.00
2013-6-5,76.0,62.7,50.0,48.0,41.8,34.0,74,49,24,30.23,30.12,0,-999,0,0.00
2013-6-6,74.0,63.9,55.0,51.0,46.7,43.0,77,55,35,30.22,30.13,0,-999,0,0.00
2013-6-7,59.0,54.2,51.0,53.0,50.3,48.0,89,86,65,30.15,29.88,0,-999,0,0.00
2013-6-8,75.0,61.5,51.0,58.0,53.3,48.0,90,75,53,30.04,29.68,0,-999,0,0.00
2013-6-9,78.0,67.5,57.0,55.0,51.4,48.0,83,59,36,30.20,30.03,0,-999,0,0.00
2013-6-10,71.0,63.4,57.0,57.0,53.6,51.0,88,70,53,30.24,30.05,0,-999,0,0.00
2013-6-11,61.0,56.6,54.0,54.0,52.7,51.0,89,87,77,30.06,29.62,0,-999,0,0.00
2013-6-12,68.0,60.6,54.0,54.0,50.7,48.0,90,71,50,29.86,29.60,0,-999,0,0.00
2013-6-13,68.0,57.5,51.0,55.0,50.5,47.0,88,78,58,29.85,29.74,0,-999,0,0.00
2013-6-14,75.0,60.3,50.0,52.0,49.2,43.0,90,70,33,29.81,29.70,0,-999,0,0.00
2013-6-15,76.0,67.1,57.0,50.0,41.1,-99.9,65,42,22,29.97,29.81,0,-999,0,0.00
2013-6-16,76.0,66.9,58.0,56.0,49.2,44.0,63,53,37,29.97,29.74,0,-999,0,0.00
2013-6-17,82.0,68.0,61.0,60.0,55.0,-99.9,87,67,37,29.94,29.81,0,-999,0,0.00
2013-6-18,72.0,62.0,57.0,59.0,56.5,54.0,89,82,61,29.99,29.93,0,-999,0,0.00
2013-6-19,76.0,64.4,54.0,54.0,45.0,-99.9,90,58,27,30.18,29.95,0,-999,0,0.00
2013-6-20,79.0,63.4,51.0,49.0,44.4,42.0,78,52,27,30.30,30.18,0,-999,0,0.00
2013-6-22,84.0,78.6,71.0,61.0,57.0,53.0,62,48,37,30.25,30.14,0,-999,0,0.00
2013-6-23,89.0,77.3,65.0,67.0,61.3,55.0,70,58,45,30.19,30.02,0,-999,0,0.00
2013-6-24,91.0,79.4,71.0,67.0,64.8,59.0,82,62,38,30.06,29.92,0,-999,0,0.00
2013-6-25,89.0,78.5,69.0,68.0,63.9,62.0,88,62,41,29.96,29.76,0,-999,0,0.00
2013-6-26,81.0,73.3,69.0,68.0,65.6,64.0,87,77,58,29.89,29.76,0,-999,0,0.00
2013-6-27,73.0,66.1,61.0,65.0,61.2,58.0,89,84,71,29.91,29.80,0,-999,0,0.00
2013-6-28,81.0,67.8,57.0,70.0,62.4,54.0,90,83,63,29.80,29.52,0,-999,0,0.00
2013-6-29,84.0,75.9,71.0,67.0,65.1,62.0,82,69,50,29.75,29.55,0,-999,0,0.00
2013-6-30,87.0,76.4,69.0,70.0,65.4,64.0,84,69,48,29.97,29.75,0,-999,0,0.00
2013-7-1,83.0,74.6,71.0,70.0,67.9,66.0,89,79,63,30.11,29.97,0,-999,0,0.00
2013-7-2,85.0,72.8,60.0,71.0,66.0,57.0,89,79,61,30.25,30.11,0,-999,0,0.00
2013-7-3,86.0,75.1,60.0,70.0,65.1,57.0,90,72,54,30.25,30.17,0,-999,0,0.00
2013-7-4,90.0,82.3,74.0,70.0,68.7,67.0,82,64,45,30.25,30.13,0,-999,0,0.00
2013-7-5,92.0,82.9,75.0,71.0,69.1,67.0,79,64,44,30.20,30.08,0,-999,0,0.00
2013-7-6,88.0,81.8,76.0,70.0,66.1,57.0,79,60,38,30.12,30.03,0,-999,0,0.00
2013-7-7,94.0,79.7,71.0,74.0,65.0,57.0,73,61,42,30.07,29.95,0,-999,0,0.00
2013-7-8,89.0,76.9,67.0,71.0,67.9,61.0,88,74,48,30.11,29.95,0,-999,0,0.00
2013-7-9,76.0,69.0,64.0,66.0,62.8,61.0,89,80,65,30.15,30.09,0,-999,0,0.00
2013-7-10,88.0,74.5,66.0,72.0,67.0,61.0,87,78,57,30.12,29.83,0,-999,0,0.00
2013-7-11,85.0,76.6,71.0,71.0,68.3,63.0,85,75,58,29.97,29.81,0,-999,0,0.00
2013-7-12,81.0,71.2,66.0,62.0,56.5,50.0,79,61,37,30.24,29.98,0,-999,0,0.00
2013-7-13,81.0,72.3,64.0,68.0,62.0,54.0,85,70,59,30.35,30.25,0,-999,0,0.00
2013-7-14,90.0,80.5,70.0,72.0,67.8,63.0,88,66,45,30.35,30.25,0,-999,0,0.00
2013-7-15,91.0,82.0,72.0,72.0,67.6,62.0,84,63,38,30.26,30.14,0,-999,0,0.00
2013-7-16,92.0,82.3,72.0,68.0,63.8,59.0,72,54,34,30.21,30.16,0,-999,0,0.00
2013-7-17,94.0,83.9,72.0,70.0,66.6,63.0,84,57,36,30.23,30.03,0,-999,0,0.00
2013-7-18,96.0,84.2,77.0,71.0,68.3,64.0,74,59,37,30.06,29.98,0,-999,0,0.00
2013-7-19,94.0,88.5,79.0,73.0,69.4,65.0,73,54,40,29.93,29.76,0,-999,0,0.00
2013-7-20,89.0,82.8,75.0,73.0,67.4,60.0,73,59,47,29.84,29.70,0,-999,0,0.00
2013-7-21,85.0,75.6,67.0,64.0,60.6,58.0,75,60,40,30.03,29.84,0,-999,0,0.00
2013-7-22,86.0,73.5,65.0,67.0,63.9,61.0,89,72,48,30.06,29.94,0,-999,0,0.00
2013-7-23,82.0,71.2,68.0,71.0,66.6,63.0,90,85,69,29.94,29.59,0,-999,0,0.00
2013-7-24,82.0,75.3,63.0,69.0,63.1,50.0,89,67,46,30.01,29.63,0,-999,0,0.00
2013-7-25,63.0,59.2,56.0,56.0,50.3,44.0,89,72,60,30.15,30.01,0,-999,0,0.00
2013-7-26,73.0,64.3,58.0,64.0,59.0,55.0,90,83,68,30.12,29.99,0,-999,0,0.00
2013-7-27,84.0,72.0,60.0,64.0,58.3,54.0,81,63,39,30.09,30.03,0,-999,0,0.00
2013-7-28,85.0,72.2,64.0,68.0,63.0,60.0,88,73,49,30.06,30.01,0,-999,0,0.00
2013-7-29,88.0,73.1,67.0,69.0,64.8,62.0,88,76,46,30.08,30.00,0,-999,0,0.00
2013-7-30,81.0,71.4,62.0,65.0,54.7,48.0,89,58,32,30.14,30.08,0,-999,0,0.00
2013-7-31,84.0,71.8,61.0,61.0,55.6,51.0,80,58,34,30.18,30.08,0,-999,0,0.00
2013-8-1,81.0,69.2,63.0,62.0,60.1,58.0,85,73,48,30.09,29.92,0,-999,0,0.00
2013-8-2,80.0,71.4,64.0,64.0,58.7,51.0,88,67,36,29.92,29.84,0,-999,0,0.00
2013-8-3,79.0,69.7,63.0,60.0,55.8,-99.9,84,65,47,29.91,29.82,0,-999,0,0.00
2013-8-4,77.0,67.1,59.0,56.0,51.9,49.0,72,59,39,29.93,29.82,0,-999,0,0.00
2013-8-5,74.0,63.4,57.0,51.0,44.0,37.0,72,52,25,30.08,29.93,0,-999,0,0.00
2013-8-6,82.0,66.5,53.0,51.0,46.9,41.0,75,51,29,30.18,30.09,0,-999,0,0.00
2013-8-7,81.0,65.9,58.0,55.0,51.8,47.0,82,62,30,30.21,30.15,0,-999,0,0.00
2013-8-8,82.0,71.6,64.0,68.0,62.3,55.0,84,72,60,30.16,30.05,0,-999,0,0.00
2013-8-9,75.0,73.2,71.0,71.0,67.9,65.0,88,83,74,30.06,29.79,0,-999,0,0.00
2013-8-10,81.0,72.4,64.0,68.0,56.1,-99.9,87,62,35,30.05,29.83,0,-999,0,0.00
2013-8-21,88.0,76.1,65.0,63.0,59.2,57.0,76,57,37,30.19,30.07,0,-999,0,0.00
2013-8-22,85.0,75.9,65.0,66.0,62.9,59.0,80,65,41,30.08,29.87,0,-999,0,0.00
2013-8-23,80.0,71.7,62.0,66.0,53.3,45.0,82,55,31,30.17,29.87,0,-999,0,0.00
2013-8-24,80.0,66.6,54.0,51.0,45.1,40.0,75,49,24,30.37,30.17,0,-999,0,0.00
2013-8-25,81.0,68.8,54.0,53.0,48.5,42.0,81,52,26,30.40,30.23,0,-999,0,0.00
2013-8-26,79.0,71.6,63.0,64.0,58.8,52.0,78,64,55,30.22,29.92,0,-999,0,0.00
2013-8-27,88.0,75.1,68.0,66.0,63.7,60.0,87,70,39,29.92,29.88,0,-999,0,0.00
2013-9-10,76.0,66.2,56.0,67.0,59.1,47.0,87,77,69,30.18,30.06,0,-999,0,0.00
2013-9-11,94.0,81.0,69.0,72.0,67.5,63.0,88,66,38,30.10,29.98,0,-999,0,0.00
2013-9-12,86.0,76.3,66.0,70.0,65.4,63.0,90,69,51,30.00,29.73,0,-999,0,0.00
2013-9-13,76.0,66.6,57.0,66.0,59.9,51.0,90,79,64,29.80,29.61,0,-999,0,0.00
2013-9-14,65.0,58.0,53.0,50.0,48.4,47.0,85,70,55,30.08,29.80,0,-999,0,0.00
2013-9-15,70.0,57.2,48.0,49.0,45.7,39.0,85,68,34,30.20,30.09,0,-999,0,0.00
2013-9-16,65.0,56.9,45.0,51.0,45.7,34.0,79,66,52,30.29,30.05,0,-999,0,0.00
2013-10-7,76.0,62.5,54.0,68.0,57.8,51.0,90,84,64,30.17,29.83,0,-999,0,0.00
2013-10-8,65.0,55.5,46.0,52.0,37.2,-99.9,83,57,33,30.40,29.94,0,-999,0,0.00
2013-10-9,63.0,50.2,39.0,43.0,38.9,35.0,84,66,40,30.51,30.40,0,-999,0,0.00
2013-10-10,60.0,50.0,40.0,48.0,43.7,37.0,89,79,60,30.40,30.23,0,-999,0,0.00
2013-10-11,73.0,56.8,47.0,48.0,42.0,31.0,88,62,22,30.22,30.14,0,-999,0,0.00
2013-10-12,56.0,52.3,48.0,51.0,48.2,44.0,89,86,70,30.43,30.20,0,-999,0,0.00
2013-10-13,58.0,50.5,44.0,47.0,44.3,41.0,90,80,62,30.49,30.42,0,-999,0,0.00
2013-10-17,73.0,66.5,59.0,55.0,51.1,47.0,83,59,40,29.89,29.75,0,-999,0,0.00
2013-10-18,64.0,59.6,52.0,57.0,45.4,34.0,87,61,40,29.93,29.64,0,-999,0,0.00
2013-10-19,66.0,54.9,43.0,43.0,37.2,34.0,76,53,32,29.99,29.79,0,-999,0,0.00
2013-10-20,58.0,52.3,45.0,47.0,35.3,27.0,86,54,32,30.04,29.72,0,-999,0,0.00
2013-10-21,66.0,52.8,41.0,37.0,34.0,31.0,73,51,30,30.14,30.04,0,-999,0,0.00